Time;durP1;ratioP1;P1;durP2;ratioP2;P2;SDS_P1;SDS_P2;PMS_P1;PMS_P2;Temp;Humidity;BMP_temperature;BMP_pressure;BME280_temperature;BME280_humidity;BME280_pressure;Samples;Min_cycle;Max_cycle;Signal;HPM_P1;HPM_P2
2022/04/08 00:01:53;;;;;;;;;;;6.20;99.90;;;;;;5015318;28;19909;-82
2022/04/08 00:04:19;;;;;;;;;;;7.40;99.90;;;;;;5015953;28;19909;-82
2022/04/08 00:06:45;;;;;;;;;;;7.30;99.90;;;;;;5017087;28;19898;-83
2022/04/08 00:09:33;;;;;;;;;;;6.50;99.90;;;;;;5033173;28;19914;-83
2022/04/08 00:11:58;;;;;;;;;;;3.50;99.90;;;;;;5035122;28;19898;-83
2022/04/08 00:14:24;;;;;;;;;;;6.40;99.90;;;;;;5016448;28;19908;-81
2022/04/08 00:16:51;;;;;;;;;;;7.10;99.90;;;;;;5033714;28;19944;-83
2022/04/08 00:19:17;;;;;;;;;;;6.40;99.90;;;;;;5033291;28;19932;-83
2022/04/08 00:21:48;;;;;;;;;;;6.50;99.90;;;;;;5033688;28;19897;-82
2022/04/08 00:24:32;;;;;;;;;;;6.40;99.90;;;;;;5033970;28;19917;-82
2022/04/08 00:27:21;;;;;;;;;;;4.20;99.90;;;;;;5033477;28;20044;-82
2022/04/08 00:29:46;;;;;;;;;;;6.50;99.90;;;;;;5033188;28;19936;-83
2022/04/08 00:32:12;;;;;;;;;;;6.50;99.90;;;;;;5032841;28;19898;-82
2022/04/08 00:34:40;;;;;;;;;;;6.30;99.90;;;;;;5016299;28;19941;-83
2022/04/08 00:37:05;;;;;;;;;;;6.60;99.90;;;;;;5016291;28;19917;-84
2022/04/08 00:39:31;;;;;;;;;;;7.90;99.90;;;;;;5034428;28;19984;-83
2022/04/08 00:41:59;;;;;;;;;;;6.30;99.90;;;;;;5031509;28;19925;-81
2022/04/08 00:44:24;;;;;;;;;;;6.70;99.90;;;;;;5032276;28;20009;-83
2022/04/08 00:46:50;;;;;;;;;;;6.40;99.90;;;;;;5032970;28;19909;-82
2022/04/08 00:49:16;;;;;;;;;;;6.50;99.90;;;;;;5031681;28;19910;-82
2022/04/08 00:51:42;;;;;;;;;;;6.70;99.90;;;;;;5010653;28;19913;-82
2022/04/08 00:54:08;;;;;;;;;;;6.70;99.90;;;;;;5002885;28;20356;-83
2022/04/08 00:56:35;;;;;;;;;;;6.90;99.90;;;;;;5021815;28;19917;-82
2022/04/08 00:59:00;;;;;;;;;;;6.70;99.90;;;;;;5001616;28;19959;-83
2022/04/08 01:01:26;;;;;;;;;;;6.20;99.90;;;;;;5012112;28;19910;-83
2022/04/08 01:03:52;;;;;;;;;;;6.10;99.90;;;;;;5014854;28;19937;-81
2022/04/08 01:06:21;;;;;;;;;;;7.60;99.90;;;;;;5030393;28;19910;-83
2022/04/08 01:08:51;;;;;;;;;;;6.00;99.90;;;;;;5015994;28;19909;-81
2022/04/08 01:11:16;;;;;;;;;;;6.20;99.90;;;;;;5015135;28;19909;-82
2022/04/08 01:13:42;;;;;;;;;;;6.00;99.90;;;;;;5016508;28;20009;-83
2022/04/08 01:16:08;;;;;;;;;;;7.00;99.90;;;;;;5031315;28;19924;-82
2022/04/08 01:18:34;;;;;;;;;;;5.90;99.90;;;;;;5032748;28;19973;-83
2022/04/08 01:21:05;;;;;;;;;;;6.00;99.90;;;;;;5016461;28;19910;-82
2022/04/08 01:23:32;;;;;;;;;;;6.60;99.90;;;;;;5033042;28;19981;-82
2022/04/08 01:25:57;;;;;;;;;;;6.30;99.90;;;;;;5010216;28;19910;-82
2022/04/08 01:28:25;;;;;;;;;;;5.50;99.90;;;;;;4996249;28;19925;-83
2022/04/08 01:30:51;;;;;;;;;;;6.30;99.90;;;;;;4997366;28;19914;-82
2022/04/08 01:33:17;;;;;;;;;;;4.10;99.90;;;;;;4996446;28;19910;-83
2022/04/08 01:35:42;;;;;;;;;;;5.80;99.90;;;;;;4995428;28;19964;-83
2022/04/08 01:38:09;;;;;;;;;;;5.90;99.90;;;;;;4995462;28;19933;-81
2022/04/08 01:40:35;;;;;;;;;;;5.40;99.90;;;;;;4995158;28;19917;-82
2022/04/08 01:43:00;;;;;;;;;;;7.00;99.90;;;;;;5011057;28;19910;-83
2022/04/08 01:45:26;;;;;;;;;;;6.90;99.90;;;;;;5012684;28;19937;-83
2022/04/08 01:47:51;;;;;;;;;;;5.80;99.90;;;;;;5014410;28;19949;-83
2022/04/08 01:50:20;;;;;;;;;;;6.10;99.90;;;;;;4999087;28;19936;-82
2022/04/08 01:52:46;;;;;;;;;;;6.50;99.90;;;;;;5017739;28;19920;-82
2022/04/08 01:55:12;;;;;;;;;;;5.80;99.90;;;;;;5019626;28;19909;-82
2022/04/08 01:57:38;;;;;;;;;;;5.90;99.90;;;;;;5003201;28;19914;-81
2022/04/08 02:00:05;;;;;;;;;;;5.90;99.90;;;;;;5003336;28;19933;-82
2022/04/08 02:02:30;;;;;;;;;;;5.40;99.90;;;;;;5020197;28;19904;-81
2022/04/08 02:04:56;;;;;;;;;;;5.80;99.90;;;;;;5019709;28;19894;-81
2022/04/08 02:07:22;;;;;;;;;;;7.00;99.90;;;;;;5018976;28;19898;-83
2022/04/08 02:09:47;;;;;;;;;;;6.20;99.90;;;;;;5017293;28;19913;-82
2022/04/08 02:12:13;;;;;;;;;;;6.20;99.90;;;;;;5000226;28;20224;-83
2022/04/08 02:14:39;;;;;;;;;;;5.80;99.90;;;;;;5017314;28;19917;-83
2022/04/08 02:17:04;;;;;;;;;;;5.50;99.90;;;;;;4999677;28;19929;-83
2022/04/08 02:19:30;;;;;;;;;;;4.90;99.90;;;;;;4999824;28;20139;-84
2022/04/08 02:22:00;;;;;;;;;;;6.10;99.90;;;;;;4993922;28;19964;-82
2022/04/08 02:24:27;;;;;;;;;;;7.10;99.90;;;;;;5013804;28;20040;-81
2022/04/08 02:26:53;;;;;;;;;;;4.10;99.90;;;;;;5011884;28;19989;-81
2022/04/08 02:29:19;;;;;;;;;;;6.50;99.90;;;;;;5018243;28;19920;-81
2022/04/08 02:31:45;;;;;;;;;;;8.10;99.90;;;;;;5016948;28;19947;-83
2022/04/08 02:34:10;;;;;;;;;;;5.90;99.90;;;;;;5037033;28;19909;-82
2022/04/08 02:36:36;;;;;;;;;;;5.80;99.90;;;;;;5033996;28;19989;-82
2022/04/08 02:39:01;;;;;;;;;;;5.80;99.90;;;;;;5016257;28;19928;-81
2022/04/08 02:41:29;;;;;;;;;;;5.60;99.90;;;;;;5016455;28;19909;-83
2022/04/08 02:43:55;;;;;;;;;;;3.20;99.90;;;;;;5014240;28;19910;-80
2022/04/08 02:46:21;;;;;;;;;;;6.10;99.90;;;;;;5014480;28;19944;-81
2022/04/08 02:48:46;;;;;;;;;;;5.80;99.90;;;;;;5005773;28;19917;-82
2022/04/08 02:51:12;;;;;;;;;;;5.70;99.90;;;;;;4995315;28;20396;-81
2022/04/08 02:53:39;;;;;;;;;;;5.20;99.90;;;;;;5013346;28;20107;-81
2022/04/08 02:56:04;;;;;;;;;;;5.60;99.90;;;;;;4998619;28;19918;-80
2022/04/08 02:58:30;;;;;;;;;;;5.60;99.90;;;;;;5004408;28;19963;-80
2022/04/08 03:01:07;;;;;;;;;;;5.40;99.90;;;;;;5007993;28;19979;-81
2022/04/08 03:03:33;;;;;;;;;;;6.20;99.90;;;;;;4989526;28;19914;-81
2022/04/08 03:06:00;;;;;;;;;;;5.80;99.90;;;;;;5008503;28;19933;-83
2022/04/08 03:08:28;;;;;;;;;;;5.70;99.90;;;;;;5026219;28;19910;-81
2022/04/08 03:10:53;;;;;;;;;;;8.10;99.90;;;;;;5011783;28;19917;-81
2022/04/08 03:13:19;;;;;;;;;;;2.50;99.90;;;;;;5015707;28;19902;-82
2022/04/08 03:15:45;;;;;;;;;;;6.10;99.90;;;;;;5034718;28;20353;-82
2022/04/08 03:18:11;;;;;;;;;;;6.00;99.90;;;;;;5015997;28;19929;-84
2022/04/08 03:20:37;;;;;;;;;;;6.20;99.90;;;;;;5029298;28;19909;-84
2022/04/08 03:23:03;;;;;;;;;;;5.40;99.90;;;;;;5011770;28;20175;-83
2022/04/08 03:25:28;;;;;;;;;;;4.60;99.90;;;;;;5030918;28;19917;-83
2022/04/08 03:27:54;;;;;;;;;;;7.00;99.90;;;;;;5034915;28;19909;-82
2022/04/08 03:30:20;;;;;;;;;;;5.90;99.90;;;;;;5036311;28;19897;-82
2022/04/08 03:32:47;;;;;;;;;;;5.70;99.90;;;;;;5036651;28;19893;-82
2022/04/08 03:35:13;;;;;;;;;;;5.60;99.90;;;;;;5036123;28;19965;-83
2022/04/08 03:37:41;;;;;;;;;;;6.00;99.90;;;;;;5037305;28;19952;-83
2022/04/08 03:40:08;;;;;;;;;;;8.10;99.90;;;;;;5037328;28;19918;-81
2022/04/08 03:42:33;;;;;;;;;;;8.00;99.90;;;;;;5036065;28;19918;-81
2022/04/08 03:44:59;;;;;;;;;;;5.80;99.90;;;;;;5020000;28;19897;-82
2022/04/08 03:47:25;;;;;;;;;;;2.90;99.90;;;;;;5034082;28;19956;-83
2022/04/08 03:49:51;;;;;;;;;;;5.80;99.90;;;;;;5037334;28;19910;-83
2022/04/08 03:52:17;;;;;;;;;;;4.40;99.90;;;;;;5021422;28;19905;-82
2022/04/08 03:54:42;;;;;;;;;;;5.10;99.90;;;;;;5037851;28;19905;-83
2022/04/08 03:57:08;;;;;;;;;;;6.50;99.90;;;;;;5020733;28;19960;-82
2022/04/08 03:59:33;;;;;;;;;;;5.40;99.90;;;;;;5020552;28;19917;-83
2022/04/08 04:02:01;;;;;;;;;;;7.40;99.90;;;;;;5019677;28;19898;-81
2022/04/08 04:04:31;;;;;;;;;;;5.60;99.90;;;;;;5033108;28;19957;-82
2022/04/08 04:06:57;;;;;;;;;;;6.10;99.90;;;;;;5037429;28;19921;-83
2022/04/08 04:09:23;;;;;;;;;;;6.40;99.90;;;;;;5037312;28;19914;-81
2022/04/08 04:11:51;;;;;;;;;;;6.00;99.90;;;;;;5035215;28;19944;-81
2022/04/08 04:14:16;;;;;;;;;;;4.10;99.90;;;;;;5037426;28;19969;-83
2022/04/08 04:16:42;;;;;;;;;;;8.30;99.90;;;;;;5035540;28;19918;-82
2022/04/08 04:19:08;;;;;;;;;;;3.70;99.90;;;;;;5037296;28;19969;-82
2022/04/08 04:21:35;;;;;;;;;;;5.80;99.90;;;;;;5018332;28;19927;-83
2022/04/08 04:24:00;;;;;;;;;;;3.20;99.90;;;;;;5035342;28;19897;-82
2022/04/08 04:26:26;;;;;;;;;;;5.90;99.90;;;;;;5034248;28;19928;-81
2022/04/08 04:28:52;;;;;;;;;;;2.60;99.90;;;;;;5019555;28;19944;-82
2022/04/08 04:31:18;;;;;;;;;;;4.80;99.90;;;;;;5019169;28;19957;-82
2022/04/08 04:33:43;;;;;;;;;;;3.90;99.90;;;;;;5003244;28;19913;-83
2022/04/08 04:36:11;;;;;;;;;;;4.50;99.90;;;;;;5019448;28;19897;-83
2022/04/08 04:38:36;;;;;;;;;;;7.60;99.90;;;;;;5035871;28;19910;-82
2022/04/08 04:41:02;;;;;;;;;;;4.80;99.90;;;;;;5035950;28;19965;-82
2022/04/08 04:43:28;;;;;;;;;;;5.80;99.90;;;;;;5035438;28;19917;-83
2022/04/08 04:45:54;;;;;;;;;;;6.20;99.90;;;;;;5003257;28;19937;-82
2022/04/08 04:48:19;;;;;;;;;;;6.00;99.90;;;;;;5017647;28;19898;-82
2022/04/08 04:50:46;;;;;;;;;;;6.00;99.90;;;;;;5019327;28;19894;-82
2022/04/08 04:53:12;;;;;;;;;;;6.10;99.90;;;;;;5018550;28;19913;-83
2022/04/08 04:55:38;;;;;;;;;;;6.00;99.90;;;;;;5033659;28;19901;-83
2022/04/08 04:58:04;;;;;;;;;;;7.10;99.90;;;;;;5018357;28;19925;-83
2022/04/08 05:00:30;;;;;;;;;;;6.00;99.90;;;;;;5018405;28;19916;-81
2022/04/08 05:02:55;;;;;;;;;;;3.40;99.90;;;;;;5017647;28;19897;-83
2022/04/08 05:05:21;;;;;;;;;;;6.50;99.90;;;;;;5035261;28;19980;-82
2022/04/08 05:07:47;;;;;;;;;;;6.00;99.90;;;;;;5035675;28;19973;-81
2022/04/08 05:10:12;;;;;;;;;;;5.30;99.90;;;;;;5011757;28;20012;-80
2022/04/08 05:12:38;;;;;;;;;;;6.30;99.90;;;;;;5010881;28;19969;-81
2022/04/08 05:15:06;;;;;;;;;;;5.40;99.90;;;;;;5035413;28;19902;-83
2022/04/08 05:17:35;;;;;;;;;;;6.40;99.90;;;;;;5018094;28;20005;-84
2022/04/08 05:20:03;;;;;;;;;;;6.40;99.90;;;;;;5034771;28;21811;-83
2022/04/08 05:22:29;;;;;;;;;;;6.80;99.90;;;;;;5019548;28;19916;-82
2022/04/08 05:24:55;;;;;;;;;;;6.80;99.90;;;;;;5042198;28;19973;-82
2022/04/08 05:27:20;;;;;;;;;;;6.80;99.90;;;;;;5042177;28;19929;-81
2022/04/08 05:29:51;;;;;;;;;;;5.60;99.90;;;;;;5041973;28;19925;-81
2022/04/08 05:32:16;;;;;;;;;;;6.90;99.90;;;;;;5025348;28;19908;-83
2022/04/08 05:34:42;;;;;;;;;;;8.00;99.90;;;;;;5042349;28;20199;-83
2022/04/08 05:37:08;;;;;;;;;;;9.60;99.90;;;;;;5024563;28;19911;-81
2022/04/08 05:39:34;;;;;;;;;;;5.20;99.90;;;;;;5042182;28;19920;-84
2022/04/08 05:42:02;;;;;;;;;;;8.20;99.90;;;;;;5041894;28;19913;-83
2022/04/08 05:44:30;;;;;;;;;;;6.40;99.90;;;;;;5034596;28;19933;-83
2022/04/08 05:46:55;;;;;;;;;;;6.20;99.60;;;;;;5016352;28;20352;-83
2022/04/08 05:49:24;;;;;;;;;;;8.40;99.90;;;;;;5031459;28;19910;-84
2022/04/08 05:51:49;;;;;;;;;;;7.80;99.90;;;;;;5020313;28;19981;-81
2022/04/08 05:54:15;;;;;;;;;;;7.60;99.80;;;;;;5018880;28;19909;-83
2022/04/08 05:56:41;;;;;;;;;;;9.80;99.90;;;;;;5020137;28;19913;-85
2022/04/08 05:59:06;;;;;;;;;;;8.40;99.80;;;;;;5017545;28;19928;-83
2022/04/08 06:01:32;;;;;;;;;;;8.10;99.80;;;;;;5038523;28;19913;-84
2022/04/08 06:03:58;;;;;;;;;;;7.60;99.20;;;;;;5021321;28;19915;-83
2022/04/08 06:06:23;;;;;;;;;;;9.30;99.60;;;;;;5018953;28;19989;-83
2022/04/08 06:08:52;;;;;;;;;;;7.40;98.10;;;;;;5038608;28;19941;-84
2022/04/08 06:11:17;;;;;;;;;;;10.10;99.50;;;;;;5039277;28;19909;-84
2022/04/08 06:13:43;;;;;;;;;;;9.70;98.40;;;;;;5022808;28;19901;-84
2022/04/08 06:16:08;;;;;;;;;;;11.10;97.80;;;;;;5039758;28;19933;-83
2022/04/08 06:18:35;;;;;;;;;;;10.10;95.80;;;;;;5022135;28;19916;-81
2022/04/08 06:21:01;;;;;;;;;;;10.00;95.30;;;;;;5039108;28;19997;-80
2022/04/08 06:23:27;;;;;;;;;;;9.00;95.10;;;;;;5024772;28;19893;-84
2022/04/08 06:25:52;;;;;;;;;;;11.00;94.50;;;;;;5041152;28;19929;-85
2022/04/08 06:28:18;;;;;;;;;;;11.10;93.40;;;;;;5025222;28;19940;-82
2022/04/08 06:30:43;;;;;;;;;;;11.30;93.10;;;;;;5041706;28;19897;-82
2022/04/08 06:33:09;;;;;;;;;;;10.70;92.80;;;;;;5025343;28;19914;-86
2022/04/08 06:35:35;;;;;;;;;;;12.00;91.90;;;;;;5020206;28;19901;-86
2022/04/08 06:38:02;;;;;;;;;;;12.00;90.80;;;;;;5034344;28;19961;-85
2022/04/08 06:40:28;;;;;;;;;;;12.30;90.20;;;;;;5012678;28;19924;-87
2022/04/08 06:42:59;;;;;;;;;;;12.50;88.80;;;;;;5025344;28;20135;-86
2022/04/08 06:45:26;;;;;;;;;;;12.70;88.50;;;;;;5002095;28;20191;-86
2022/04/08 06:47:52;;;;;;;;;;;12.80;88.10;;;;;;4996112;28;19917;-84
2022/04/08 06:50:18;;;;;;;;;;;12.90;87.10;;;;;;4990259;28;19937;-85
2022/04/08 06:52:44;;;;;;;;;;;13.10;86.30;;;;;;5011682;28;19909;-89
2022/04/08 06:55:10;;;;;;;;;;;13.20;86.50;;;;;;4987195;28;20300;-88
2022/04/08 06:57:36;;;;;;;;;;;13.30;87.20;;;;;;5005162;28;20108;-88
2022/04/08 07:00:03;;;;;;;;;;;11.90;83.50;;;;;;5003757;28;19910;-86
2022/04/08 07:02:29;;;;;;;;;;;13.40;85.30;;;;;;4985878;28;19909;-88
2022/04/08 07:04:54;;;;;;;;;;;13.60;85.30;;;;;;4987095;28;19921;-88
2022/04/08 07:07:20;;;;;;;;;;;13.70;84.30;;;;;;4986825;28;19914;-88
2022/04/08 07:09:45;;;;;;;;;;;13.80;83.50;;;;;;4986505;28;19918;-89
2022/04/08 07:12:11;;;;;;;;;;;13.90;83.20;;;;;;5004518;28;20352;-89
2022/04/08 07:14:37;;;;;;;;;;;14.00;83.00;;;;;;5003463;28;20046;-89
2022/04/08 07:17:03;;;;;;;;;;;14.20;81.20;;;;;;5003808;28;19925;-87
2022/04/08 07:19:28;;;;;;;;;;;14.10;80.70;;;;;;5004756;28;19909;-89
2022/04/08 07:21:54;;;;;;;;;;;14.30;80.80;;;;;;5003630;28;19992;-89
2022/04/08 07:24:20;;;;;;;;;;;14.30;80.20;;;;;;4988501;28;19945;-86
2022/04/08 07:26:45;;;;;;;;;;;14.50;78.70;;;;;;4978261;28;20016;-89
2022/04/08 07:29:11;;;;;;;;;;;14.60;78.40;;;;;;4989180;28;19914;-86
2022/04/08 07:31:36;;;;;;;;;;;14.60;77.90;;;;;;4974873;28;20340;-89
2022/04/08 07:34:02;;;;;;;;;;;14.60;76.80;;;;;;4970882;28;20365;-89
2022/04/08 07:36:27;;;;;;;;;;;14.70;76.80;;;;;;4965568;28;20420;-89
2022/04/08 07:38:53;;;;;;;;;;;14.80;75.70;;;;;;4967743;28;20099;-88
2022/04/08 07:41:19;;;;;;;;;;;14.90;74.90;;;;;;4985044;28;19913;-90
2022/04/08 07:43:44;;;;;;;;;;;15.10;73.00;;;;;;4964753;28;20135;-87
2022/04/08 07:46:10;;;;;;;;;;;15.00;73.50;;;;;;4964899;28;19910;-89
2022/04/08 07:48:35;;;;;;;;;;;15.10;73.40;;;;;;4982536;28;19906;-90
2022/04/08 07:51:01;;;;;;;;;;;14.90;72.60;;;;;;4964575;28;20009;-89
2022/04/08 07:53:27;;;;;;;;;;;15.00;73.30;;;;;;4982524;28;19914;-87
2022/04/08 07:55:53;;;;;;;;;;;14.80;74.30;;;;;;4981591;28;20556;-85
2022/04/08 07:58:19;;;;;;;;;;;15.00;73.20;;;;;;4964607;28;19985;-88
2022/04/08 08:00:44;;;;;;;;;;;15.10;74.50;;;;;;4965012;28;20008;-88
2022/04/08 08:03:11;;;;;;;;;;;15.30;72.20;;;;;;4964368;28;20001;-85
2022/04/08 08:05:37;;;;;;;;;;;15.50;71.00;;;;;;4964447;28;19975;-86
2022/04/08 08:08:03;;;;;;;;;;;15.60;70.30;;;;;;4981411;28;19910;-84
2022/04/08 08:10:35;;;;;;;;;;;15.70;70.10;;;;;;4962893;28;19913;-87
2022/04/08 08:13:01;;;;;;;;;;;15.80;69.10;;;;;;4982222;28;19983;-86
2022/04/08 08:15:27;;;;;;;;;;;15.90;69.70;;;;;;4981735;28;20494;-85
2022/04/08 08:17:52;;;;;;;;;;;16.00;68.90;;;;;;4966845;28;20573;-86
2022/04/08 08:20:19;;;;;;;;;;;16.20;69.90;;;;;;4964910;28;20490;-86
2022/04/08 08:22:45;;;;;;;;;;;16.30;68.10;;;;;;4963887;28;19998;-86
2022/04/08 08:25:11;;;;;;;;;;;16.50;68.50;;;;;;4980927;28;19957;-86
2022/04/08 08:27:41;;;;;;;;;;;16.50;66.80;;;;;;4982152;28;20004;-86
2022/04/08 08:30:10;;;;;;;;;;;16.60;65.50;;;;;;5000166;28;20557;-84
2022/04/08 08:32:39;;;;;;;;;;;16.70;65.40;;;;;;4982916;28;19910;-83
2022/04/08 08:35:07;;;;;;;;;;;16.70;65.70;;;;;;5001042;28;19909;-84
2022/04/08 08:37:33;;;;;;;;;;;16.60;66.20;;;;;;4982632;28;19929;-89
2022/04/08 08:39:58;;;;;;;;;;;16.90;64.90;;;;;;4982860;28;19917;-86
2022/04/08 08:42:24;;;;;;;;;;;17.00;64.10;;;;;;5000103;28;19996;-85
2022/04/08 08:44:50;;;;;;;;;;;17.10;62.20;;;;;;4983021;28;19923;-83
2022/04/08 08:47:17;;;;;;;;;;;16.90;60.60;;;;;;4983184;28;19909;-86
2022/04/08 08:49:45;;;;;;;;;;;16.80;60.40;;;;;;4982421;28;19920;-86
2022/04/08 08:52:10;;;;;;;;;;;16.80;61.00;;;;;;4982323;28;20012;-88
2022/04/08 08:54:36;;;;;;;;;;;16.80;61.00;;;;;;4982156;28;20595;-88
2022/04/08 08:57:02;;;;;;;;;;;16.70;61.00;;;;;;4983013;28;20123;-87
2022/04/08 08:59:29;;;;;;;;;;;17.00;61.40;;;;;;4982693;28;19917;-79
2022/04/08 09:02:01;;;;;;;;;;;17.00;61.70;;;;;;4982783;28;19905;-87
2022/04/08 09:04:27;;;;;;;;;;;17.10;61.40;;;;;;4983038;28;20016;-86
2022/04/08 09:06:53;;;;;;;;;;;17.20;61.40;;;;;;5000818;28;20191;-85
2022/04/08 09:09:31;;;;;;;;;;;17.30;61.30;;;;;;5002167;28;20411;-87
2022/04/08 09:11:58;;;;;;;;;;;17.30;61.90;;;;;;4983385;28;19972;-86
2022/04/08 09:14:30;;;;;;;;;;;17.50;61.40;;;;;;4982314;28;19917;-87
2022/04/08 09:17:00;;;;;;;;;;;17.40;61.00;;;;;;4984122;28;19913;-86
2022/04/08 09:19:25;;;;;;;;;;;17.40;60.90;;;;;;5001399;28;19925;-87
2022/04/08 09:21:54;;;;;;;;;;;17.50;61.50;;;;;;5001406;28;19910;-85
2022/04/08 09:24:23;;;;;;;;;;;17.50;60.40;;;;;;5001614;28;19917;-87
2022/04/08 09:26:52;;;;;;;;;;;17.60;60.70;;;;;;4984406;28;20008;-89
2022/04/08 09:29:22;;;;;;;;;;;17.50;60.90;;;;;;4984265;28;20352;-84
2022/04/08 09:31:48;;;;;;;;;;;17.80;61.10;;;;;;4983762;28;20273;-86
2022/04/08 09:34:16;;;;;;;;;;;17.60;60.40;;;;;;4984291;28;19968;-85
2022/04/08 09:36:44;;;;;;;;;;;17.70;60.00;;;;;;5004497;28;20047;-86
2022/04/08 09:39:12;;;;;;;;;;;17.80;59.60;;;;;;5002402;28;19910;-85
2022/04/08 09:41:42;;;;;;;;;;;17.60;60.70;;;;;;4996202;28;19949;-84
2022/04/08 09:44:08;;;;;;;;;;;17.60;60.70;;;;;;5024058;28;20094;-84
2022/04/08 09:46:33;;;;;;;;;;;17.50;59.10;;;;;;5005290;28;19909;-87
2022/04/08 09:48:59;;;;;;;;;;;17.30;59.50;;;;;;5007665;28;19897;-86
2022/04/08 09:51:26;;;;;;;;;;;17.30;60.50;;;;;;5011652;28;20008;-86
2022/04/08 09:53:52;;;;;;;;;;;17.50;61.10;;;;;;5005329;28;20009;-85
2022/04/08 09:56:20;;;;;;;;;;;17.40;58.20;;;;;;5002712;28;20004;-87
2022/04/08 09:58:48;;;;;;;;;;;17.20;59.50;;;;;;4983445;28;19913;-87
2022/04/08 10:01:15;;;;;;;;;;;17.40;59.60;;;;;;4983054;28;19960;-87
2022/04/08 10:03:40;;;;;;;;;;;17.60;59.00;;;;;;4999657;28;20370;-87
2022/04/08 10:06:07;;;;;;;;;;;17.80;58.90;;;;;;4999677;28;19914;-86
2022/04/08 10:08:33;;;;;;;;;;;17.90;57.60;;;;;;4982287;28;19918;-87
2022/04/08 10:11:12;;;;;;;;;;;18.20;57.60;;;;;;5003172;28;20222;-87
2022/04/08 10:13:57;;;;;;;;;;;17.90;56.70;;;;;;5003370;28;20084;-87
2022/04/08 10:16:23;;;;;;;;;;;18.00;56.80;;;;;;4941339;28;20552;-87
2022/04/08 10:18:50;;;;;;;;;;;18.00;56.30;;;;;;4925762;29;20421;-86
2022/04/08 10:21:16;;;;;;;;;;;18.00;55.70;;;;;;4925542;29;19910;-87
2022/04/08 10:23:48;;;;;;;;;;;18.10;55.60;;;;;;4925402;29;19910;-86
2022/04/08 10:26:23;;;;;;;;;;;18.10;55.20;;;;;;4941962;28;20272;-86
2022/04/08 10:28:53;;;;;;;;;;;18.00;55.50;;;;;;4943621;28;19981;-86
2022/04/08 10:31:23;;;;;;;;;;;18.10;57.00;;;;;;4926909;29;20342;-84
2022/04/08 10:33:48;;;;;;;;;;;18.20;56.70;;;;;;4942568;28;19938;-85
2022/04/08 10:36:14;;;;;;;;;;;18.10;56.00;;;;;;4926580;28;20121;-85
2022/04/08 10:38:40;;;;;;;;;;;18.20;57.10;;;;;;4944266;28;19925;-85
2022/04/08 10:41:09;;;;;;;;;;;18.60;56.70;;;;;;4925689;29;19910;-85
2022/04/08 10:43:48;;;;;;;;;;;18.60;55.50;;;;;;4941418;29;20167;-87
2022/04/08 10:46:26;;;;;;;;;;;18.40;55.80;;;;;;4941591;28;19911;-86
2022/04/08 10:48:55;;;;;;;;;;;18.00;56.10;;;;;;4925513;29;19917;-87
2022/04/08 10:51:21;;;;;;;;;;;17.90;57.10;;;;;;4924482;29;19911;-85
2022/04/08 10:53:46;;;;;;;;;;;18.00;57.50;;;;;;4976112;28;19909;-86
2022/04/08 10:56:13;;;;;;;;;;;18.00;58.10;;;;;;4982956;28;19971;-85
2022/04/08 10:58:42;;;;;;;;;;;17.80;57.10;;;;;;4983646;28;19913;-86
2022/04/08 11:01:16;;;;;;;;;;;18.00;57.10;;;;;;5001992;28;19990;-86
2022/04/08 11:03:45;;;;;;;;;;;18.10;56.70;;;;;;4982759;28;20471;-83
2022/04/08 11:06:15;;;;;;;;;;;18.30;56.90;;;;;;4982143;28;20145;-84
2022/04/08 11:08:40;;;;;;;;;;;18.30;57.50;;;;;;5001823;28;19905;-86
2022/04/08 11:11:07;;;;;;;;;;;18.10;56.90;;;;;;4984955;28;19967;-86
2022/04/08 11:13:32;;;;;;;;;;;18.10;58.10;;;;;;4985025;28;19947;-88
2022/04/08 11:15:58;;;;;;;;;;;18.20;57.30;;;;;;4988065;28;20256;-82
2022/04/08 11:18:26;;;;;;;;;;;18.50;56.80;;;;;;5008709;28;19926;-88
2022/04/08 11:20:52;;;;;;;;;;;18.60;56.60;;;;;;5024806;28;19911;-85
2022/04/08 11:23:27;;;;;;;;;;;18.80;55.00;;;;;;5026154;28;19901;-86
2022/04/08 11:25:52;;;;;;;;;;;19.00;55.20;;;;;;5008158;28;20319;-87
2022/04/08 11:28:20;;;;;;;;;;;19.40;54.30;;;;;;5004259;28;20120;-83
2022/04/08 11:30:46;;;;;;;;;;;19.60;52.90;;;;;;5015761;28;19917;-84
2022/04/08 11:33:15;;;;;;;;;;;19.60;53.40;;;;;;4993647;28;20129;-86
2022/04/08 11:35:41;;;;;;;;;;;19.70;53.10;;;;;;5013602;28;20344;-82
2022/04/08 11:38:14;;;;;;;;;;;20.10;52.50;;;;;;4996296;28;19976;-83
2022/04/08 11:40:39;;;;;;;;;;;19.90;52.40;;;;;;4995818;28;19921;-84
2022/04/08 11:43:05;;;;;;;;;;;19.50;52.80;;;;;;4988623;28;19910;-83
2022/04/08 11:45:31;;;;;;;;;;;19.30;53.50;;;;;;5005275;28;19914;-85
2022/04/08 11:47:56;;;;;;;;;;;19.10;54.20;;;;;;4985423;28;19909;-85
2022/04/08 11:50:24;;;;;;;;;;;18.90;54.50;;;;;;5002930;28;20415;-84
2022/04/08 11:52:56;;;;;;;;;;;18.60;55.50;;;;;;4985824;28;20205;-82
2022/04/08 11:55:25;;;;;;;;;;;18.50;56.40;;;;;;5003525;28;20392;-85
2022/04/08 11:57:51;;;;;;;;;;;18.50;56.50;;;;;;5002783;28;19976;-80
2022/04/08 12:00:22;;;;;;;;;;;18.40;56.20;;;;;;4984014;28;20560;-84
2022/04/08 12:02:48;;;;;;;;;;;18.50;56.20;;;;;;5002644;28;19916;-84
2022/04/08 12:05:18;;;;;;;;;;;18.70;55.20;;;;;;5002547;28;19909;-82
2022/04/08 12:07:44;;;;;;;;;;;18.60;55.00;;;;;;4986146;28;19926;-82
2022/04/08 12:10:10;;;;;;;;;;;18.50;56.00;;;;;;4998540;28;19916;-84
2022/04/08 12:12:36;;;;;;;;;;;18.50;56.80;;;;;;5020515;28;19936;-85
2022/04/08 12:15:08;;;;;;;;;;;18.60;56.50;;;;;;5002110;28;19909;-84
2022/04/08 12:17:41;;;;;;;;;;;17.40;56.50;;;;;;5000944;28;19926;-80
2022/04/08 12:20:17;;;;;;;;;;;18.20;56.80;;;;;;4993646;28;19928;-83
2022/04/08 12:22:46;;;;;;;;;;;18.10;57.90;;;;;;4992364;28;19925;-84
2022/04/08 12:25:13;;;;;;;;;;;18.00;58.40;;;;;;4992231;28;19913;-86
2022/04/08 12:27:38;;;;;;;;;;;17.80;58.80;;;;;;5013479;28;19921;-87
2022/04/08 12:30:11;;;;;;;;;;;17.90;59.70;;;;;;4985843;28;19910;-86
2022/04/08 12:32:42;;;;;;;;;;;18.30;58.40;;;;;;5000468;28;19940;-86
2022/04/08 12:35:14;;;;;;;;;;;18.80;56.00;;;;;;4982762;28;20557;-86
2022/04/08 12:37:40;;;;;;;;;;;19.00;56.20;;;;;;4982247;28;19926;-86
2022/04/08 12:40:06;;;;;;;;;;;19.30;55.00;;;;;;4982225;28;19920;-85
2022/04/08 12:42:33;;;;;;;;;;;19.80;53.40;;;;;;4983804;28;19941;-85
2022/04/08 12:44:58;;;;;;;;;;;20.40;51.60;;;;;;5000002;28;19980;-84
2022/04/08 12:47:24;;;;;;;;;;;20.80;50.60;;;;;;4981921;28;20508;-83
2022/04/08 12:49:50;;;;;;;;;;;20.80;51.10;;;;;;4999192;28;19997;-86
2022/04/08 12:52:15;;;;;;;;;;;20.80;51.80;;;;;;4999294;28;19916;-85
2022/04/08 12:54:41;;;;;;;;;;;20.60;51.80;;;;;;4981647;28;20102;-85
2022/04/08 12:57:06;;;;;;;;;;;20.70;50.40;;;;;;4999173;28;19917;-85
2022/04/08 12:59:32;;;;;;;;;;;21.20;50.40;;;;;;4981425;28;19917;-85
2022/04/08 13:01:57;;;;;;;;;;;21.50;49.00;;;;;;4981407;28;19938;-84
2022/04/08 13:04:23;;;;;;;;;;;21.50;48.80;;;;;;4999197;28;20539;-85
2022/04/08 13:06:50;;;;;;;;;;;21.60;47.90;;;;;;4981274;28;19917;-85
2022/04/08 13:09:15;;;;;;;;;;;21.40;47.50;;;;;;4999264;28;20407;-84
2022/04/08 13:11:43;;;;;;;;;;;20.90;47.10;;;;;;4999519;28;19964;-86
2022/04/08 13:14:08;;;;;;;;;;;20.70;48.30;;;;;;4981321;28;19909;-83
2022/04/08 13:16:34;;;;;;;;;;;20.70;48.60;;;;;;4998854;28;20457;-83
2022/04/08 13:18:59;;;;;;;;;;;21.00;48.50;;;;;;4981341;28;20012;-83
2022/04/08 13:21:25;;;;;;;;;;;20.90;48.50;;;;;;4998790;28;19909;-83
2022/04/08 13:23:50;;;;;;;;;;;20.80;49.00;;;;;;4998970;28;19921;-83
2022/04/08 13:26:16;;;;;;;;;;;20.60;50.10;;;;;;4973698;28;19922;-85
2022/04/08 13:28:41;;;;;;;;;;;20.70;49.80;;;;;;4961999;28;20453;-84
2022/04/08 13:31:07;;;;;;;;;;;20.80;49.50;;;;;;4962003;28;19910;-83
2022/04/08 13:33:33;;;;;;;;;;;20.50;49.90;;;;;;4979473;28;19909;-83
2022/04/08 13:36:00;;;;;;;;;;;20.30;50.60;;;;;;4980013;28;19968;-83
2022/04/08 13:38:26;;;;;;;;;;;19.70;51.70;;;;;;4979334;28;19918;-83
2022/04/08 13:40:52;;;;;;;;;;;20.00;51.50;;;;;;4980081;28;19916;-82
2022/04/08 13:43:18;;;;;;;;;;;20.30;51.30;;;;;;4979921;28;19906;-82
2022/04/08 13:45:43;;;;;;;;;;;20.90;49.50;;;;;;4983445;28;20585;-83
2022/04/08 13:48:09;;;;;;;;;;;21.20;48.90;;;;;;4984127;28;19917;-83
2022/04/08 13:50:35;;;;;;;;;;;21.80;48.40;;;;;;4966024;28;19910;-83
2022/04/08 13:53:00;;;;;;;;;;;22.10;47.20;;;;;;4966215;28;19916;-84
2022/04/08 13:55:26;;;;;;;;;;;22.70;46.30;;;;;;4983511;28;19909;-82
2022/04/08 13:57:51;;;;;;;;;;;23.10;45.90;;;;;;4986366;28;19917;-84
2022/04/08 14:00:17;;;;;;;;;;;23.40;45.30;;;;;;4985315;28;19968;-84
2022/04/08 14:02:43;;;;;;;;;;;23.70;44.70;;;;;;4984152;28;20592;-84
2022/04/08 14:05:09;;;;;;;;;;;24.10;43.70;;;;;;4984756;28;20115;-83
2022/04/08 14:07:34;;;;;;;;;;;24.00;44.30;;;;;;4983479;28;20564;-83
2022/04/08 14:10:00;;;;;;;;;;;24.30;43.40;;;;;;4983440;28;19914;-81
2022/04/08 14:12:26;;;;;;;;;;;23.70;43.50;;;;;;4984201;28;20553;-87
2022/04/08 14:14:52;;;;;;;;;;;22.70;45.00;;;;;;4965237;28;20572;-88
2022/04/08 14:17:18;;;;;;;;;;;22.00;46.30;;;;;;4983032;28;20033;-86
2022/04/08 14:19:44;;;;;;;;;;;21.40;47.80;;;;;;4983081;28;19910;-87
2022/04/08 14:22:10;;;;;;;;;;;20.70;50.20;;;;;;4965942;28;19918;-85